KGCN/GCN METAR and TAF weather

Enter ICAO airport designator
Station Type Date Time Source
KGCN METAR 2022/06/30 01:54 UTC NOAA

KGCN 300154Z 00000KT 10SM FEW120 23/09 A3031 RMK AO2 SLP159 T02280089


Station Type Date Time Source
KGCN Decoded METAR 2022/06/30 01:54 UTC NOAA

GRAND CANYON NATL PARK AIRPORT , AZ, United States (KGCN) 35-57N 112-09W 2016M
Jun 29, 2022 - 09:54 PM EDT / 2022.06.30 0154 UTC
Wind: Calm:0
Visibility: 10 mile(s):0
Sky conditions: mostly clear
Temperature: 73.0 F (22.8 C)
Dew Point: 48.0 F (8.9 C)
Relative Humidity: 41%
Pressure (altimeter): 30.31 in. Hg (1026 hPa)
ob: KGCN 300154Z 00000KT 10SM FEW120 23/09 A3031 RMK AO2 SLP159 T02280089
cycle: 2

Station Type Date Time Source
KGCN TAF 2022/06/30 02:06 UTC NOAA

TAF
AMD KGCN 300203Z 3002/3024 VRB04KT P6SM SCT070 BKN100
TEMPO 3003/3006 VRB15G25KT 5SM -TSRA BKN060CB BKN100
FM301500 22008G16KT P6SM SCT070 BKN250
FM301800 20009G16KT P6SM VCTS SCT070CB BKN110
TEMPO 3019/3022 VRB15G30KT 5SM TS BR BKN070CB
FM302300 26009G18KT 6SM -SHRA BR VCTS SCT080CB BKN100

Example: see airport list